createdAt,value
2022-12-15T00:00:03.434Z,99979.72
2022-12-15T00:02:50.244Z,99965.06
2022-12-15T00:05:35.907Z,100010.25
2022-12-15T00:08:25.631Z,100003.19
2022-12-15T00:11:10.947Z,100007.28
2022-12-15T00:13:56.058Z,100004.34
2022-12-15T00:16:42.009Z,100007.50
2022-12-15T00:19:28.686Z,100014.81
2022-12-15T00:22:14.166Z,100002.63
2022-12-15T00:24:59.772Z,99963.81
2022-12-15T00:27:45.313Z,99981.06
2022-12-15T00:30:31.011Z,100009.75
2022-12-15T00:33:16.342Z,100007.28
2022-12-15T00:36:03.259Z,100018.09
2022-12-15T00:38:44.364Z,99971.13
2022-12-15T00:41:13.555Z,99986.06
2022-12-15T00:43:41.509Z,100019.38
2022-12-15T00:46:35.660Z,100032.34
2022-12-15T00:49:03.764Z,100023.53
2022-12-15T00:51:50.774Z,100038.41
2022-12-15T00:54:35.916Z,99985.28
2022-12-15T00:57:21.359Z,100028.28
2022-12-15T01:00:06.451Z,100041.16
2022-12-15T01:02:52.248Z,100034.41
2022-12-15T01:05:37.526Z,100002.81
2022-12-15T01:08:24.966Z,100013.25
2022-12-15T01:11:10.237Z,100033.66
2022-12-15T01:13:55.657Z,100041.03
2022-12-15T01:16:40.886Z,100046.72
2022-12-15T01:19:27.335Z,100046.03
2022-12-15T01:21:55.215Z,100044.16
2022-12-15T01:24:24.792Z,99979.06
2022-12-15T01:26:52.824Z,100011.16
2022-12-15T01:29:20.680Z,100061.56
2022-12-15T01:31:49.874Z,100060.16
2022-12-15T01:34:20.354Z,100059.09
2022-12-15T01:36:48.005Z,100062.16
2022-12-15T01:39:16.046Z,100067.59
2022-12-15T01:41:44.571Z,100069.06
2022-12-15T01:44:20.551Z,100066.31
2022-12-15T01:46:52.288Z,100071.03
2022-12-15T01:49:27.588Z,99993.41
2022-12-15T01:52:00.709Z,100074.84
2022-12-15T01:54:31.884Z,99996.75
2022-12-15T01:57:05.859Z,100027.00
2022-12-15T01:59:36.794Z,100070.78
2022-12-15T02:02:05.222Z,100073.06
2022-12-15T02:04:34.890Z,100076.81
2022-12-15T02:07:02.791Z,100075.19
2022-12-15T02:09:31.528Z,100037.06
2022-12-15T02:12:08.252Z,100076.63
2022-12-15T02:14:48.321Z,100024.63
2022-12-15T02:17:23.935Z,100006.31
2022-12-15T02:20:34.772Z,100083.75
2022-12-15T02:23:32.569Z,100082.34
2022-12-15T02:26:18.966Z,100045.97
2022-12-15T02:28:58.035Z,100090.44
2022-12-15T02:31:51.865Z,100082.59
2022-12-15T02:34:28.092Z,100098.25
2022-12-15T02:37:00.436Z,100054.78
2022-12-15T02:39:28.900Z,100101.69
2022-12-15T02:41:57.464Z,100108.22
2022-12-15T02:44:31.338Z,100070.06
2022-12-15T02:47:14.549Z,100080.16
2022-12-15T02:49:54.612Z,100096.69
2022-12-15T02:52:36.098Z,100093.47
2022-12-15T02:55:17.035Z,100086.38
2022-12-15T02:57:52.407Z,100096.25
2022-12-15T03:00:21.445Z,100046.63
2022-12-15T03:02:53.859Z,100065.75
2022-12-15T03:05:24.000Z,100104.75
2022-12-15T03:07:52.202Z,100110.50
2022-12-15T03:10:23.445Z,100102.25
2022-12-15T03:12:51.890Z,100098.59
2022-12-15T03:15:20.401Z,100078.66
2022-12-15T03:17:48.512Z,100104.22
2022-12-15T03:20:17.940Z,100086.88
2022-12-15T03:22:45.781Z,100067.41
2022-12-15T03:25:13.758Z,100100.94
2022-12-15T03:27:41.955Z,100076.31
2022-12-15T03:30:10.696Z,100103.59
2022-12-15T03:32:38.539Z,100082.97
2022-12-15T03:35:07.642Z,100099.56
2022-12-15T03:37:36.860Z,100105.59
2022-12-15T03:40:05.060Z,100103.13
2022-12-15T03:42:51.326Z,100106.78
2022-12-15T03:45:21.133Z,100102.84
2022-12-15T03:47:49.622Z,100063.84
2022-12-15T03:50:19.463Z,100114.84
2022-12-15T03:52:50.803Z,100113.00
2022-12-15T03:55:19.322Z,100083.97
2022-12-15T03:57:47.356Z,100090.13
2022-12-15T04:00:16.907Z,100089.19
2022-12-15T04:02:45.610Z,100125.50
2022-12-15T04:05:18.338Z,100130.69
2022-12-15T04:07:46.499Z,100136.47
2022-12-15T04:10:15.939Z,100141.81
2022-12-15T04:12:44.267Z,100102.22
2022-12-15T04:15:12.432Z,100155.00
2022-12-15T04:17:40.937Z,100153.38
2022-12-15T04:20:12.741Z,100150.19
2022-12-15T04:22:41.983Z,100112.53
2022-12-15T04:25:29.511Z,100156.69
2022-12-15T04:28:16.872Z,100158.53
2022-12-15T04:31:06.995Z,100160.94
2022-12-15T04:33:53.674Z,100157.34
2022-12-15T04:36:39.366Z,100152.94
2022-12-15T04:39:25.008Z,100161.13
2022-12-15T04:42:11.188Z,100165.47
2022-12-15T04:44:58.133Z,100163.34
2022-12-15T04:47:43.263Z,100135.78
2022-12-15T04:50:28.949Z,100127.94
2022-12-15T04:53:14.449Z,100144.81
2022-12-15T04:55:59.969Z,100183.19
2022-12-15T04:58:45.184Z,100142.94
2022-12-15T05:01:31.899Z,100189.06
2022-12-15T05:04:17.456Z,100175.50
2022-12-15T05:07:03.330Z,100150.19
2022-12-15T05:09:48.418Z,100161.81
2022-12-15T05:12:33.683Z,100168.44
2022-12-15T05:15:19.048Z,100162.25
2022-12-15T05:18:06.158Z,100182.19
2022-12-15T05:20:51.419Z,100178.25
2022-12-15T05:23:36.888Z,100192.56
2022-12-15T05:26:22.365Z,100144.47
2022-12-15T05:29:08.083Z,100186.69
2022-12-15T05:31:51.985Z,100170.72
2022-12-15T05:34:22.746Z,100165.41
2022-12-15T05:36:51.004Z,100194.78
2022-12-15T05:39:19.158Z,100197.19
2022-12-15T05:41:47.417Z,100161.19
2022-12-15T05:44:15.469Z,100201.19
2022-12-15T05:46:43.336Z,100203.91
2022-12-15T05:49:15.163Z,100202.72
2022-12-15T05:51:45.696Z,100217.03
2022-12-15T05:54:17.409Z,100218.94
2022-12-15T05:56:45.900Z,100214.69
2022-12-15T05:59:15.033Z,100215.34
2022-12-15T06:01:43.322Z,100218.16
2022-12-15T06:04:12.884Z,100198.66
2022-12-15T06:06:41.043Z,100220.66
2022-12-15T06:09:11.289Z,100243.16
2022-12-15T06:11:39.305Z,100202.50
2022-12-15T06:14:07.183Z,100239.50
2022-12-15T06:16:39.571Z,100246.06
2022-12-15T06:19:10.964Z,100244.94
2022-12-15T06:21:39.167Z,100257.66
2022-12-15T06:24:08.296Z,100243.34
2022-12-15T06:26:39.586Z,100246.50
2022-12-15T06:29:09.740Z,100237.09
2022-12-15T06:31:40.361Z,100245.09
2022-12-15T06:34:10.278Z,100243.00
2022-12-15T06:36:39.056Z,100251.69
2022-12-15T06:39:09.391Z,100251.69
2022-12-15T06:41:38.947Z,100238.78
2022-12-15T06:44:07.239Z,100258.31
2022-12-15T06:46:35.823Z,100219.44
2022-12-15T06:49:03.743Z,100253.22
2022-12-15T06:51:32.315Z,100221.84
2022-12-15T06:54:01.976Z,100245.38
2022-12-15T06:56:34.007Z,100176.44
2022-12-15T06:59:05.731Z,100238.78
2022-12-15T07:01:33.916Z,100226.19
2022-12-15T07:04:04.366Z,100252.00
2022-12-15T07:06:36.953Z,100257.66
2022-12-15T07:09:07.354Z,100270.22
2022-12-15T07:11:35.883Z,100224.75
2022-12-15T07:14:06.060Z,100264.75
2022-12-15T07:16:34.073Z,100279.94
2022-12-15T07:19:02.607Z,100281.69
2022-12-15T07:21:31.032Z,100279.91
2022-12-15T07:23:59.997Z,100280.63
2022-12-15T07:26:28.621Z,100293.19
2022-12-15T07:28:57.088Z,100262.69
2022-12-15T07:31:26.388Z,100258.41
2022-12-15T07:33:54.807Z,100297.47
2022-12-15T07:36:23.590Z,100311.03
2022-12-15T07:38:52.197Z,100316.69
2022-12-15T07:41:21.324Z,100306.94
2022-12-15T07:43:49.811Z,100297.47
2022-12-15T07:46:17.938Z,100314.72
2022-12-15T07:48:50.166Z,100322.31
2022-12-15T07:51:21.314Z,100270.25
2022-12-15T07:53:51.223Z,100329.03
2022-12-15T07:56:19.574Z,100325.91
2022-12-15T07:58:48.542Z,100330.22
2022-12-15T08:01:17.254Z,100330.25
2022-12-15T08:03:46.551Z,100329.53
2022-12-15T08:06:17.185Z,100334.13
2022-12-15T08:08:50.199Z,100326.84
2022-12-15T08:11:20.938Z,100305.22
2022-12-15T08:14:07.759Z,100326.81
2022-12-15T08:16:37.845Z,100330.66
2022-12-15T08:19:06.525Z,100346.22
2022-12-15T08:21:35.800Z,100347.41
2022-12-15T08:24:04.489Z,100342.16
2022-12-15T08:26:32.694Z,100346.22
2022-12-15T08:29:32.043Z,100350.63
2022-12-15T08:31:52.131Z,100348.38
2022-12-15T08:34:20.216Z,100360.25
2022-12-15T08:36:49.426Z,100358.59
2022-12-15T08:39:17.835Z,100326.72
2022-12-15T08:41:45.984Z,100331.63
2022-12-15T08:44:13.930Z,100353.59
2022-12-15T08:46:41.959Z,100322.94
2022-12-15T08:49:11.867Z,100287.84
2022-12-15T08:51:42.075Z,100346.25
2022-12-15T08:54:11.626Z,100265.38
2022-12-15T08:56:39.883Z,100347.47
2022-12-15T08:59:07.976Z,100283.03
2022-12-15T09:01:39.580Z,100292.84
2022-12-15T09:04:07.805Z,100362.50
2022-12-15T09:06:37.813Z,100277.34
2022-12-15T09:09:09.154Z,100351.94
2022-12-15T09:11:38.470Z,100347.25
2022-12-15T09:14:07.127Z,100319.91
2022-12-15T09:16:35.176Z,100353.13
2022-12-15T09:19:03.198Z,100303.63
2022-12-15T09:21:32.084Z,100348.59
2022-12-15T09:24:02.166Z,100347.00
2022-12-15T09:26:32.161Z,100360.38
2022-12-15T09:29:01.900Z,100370.81
2022-12-15T09:31:32.850Z,100371.31
2022-12-15T09:34:02.440Z,100377.50
2022-12-15T09:36:32.727Z,100378.19
2022-12-15T09:39:03.052Z,100361.75
2022-12-15T09:41:33.302Z,100373.13
2022-12-15T09:44:05.223Z,100392.53
2022-12-15T09:46:50.192Z,100340.09
2022-12-15T09:49:35.394Z,100385.72
2022-12-15T09:52:11.107Z,100410.19
2022-12-15T09:54:41.944Z,100407.38
2022-12-15T09:57:17.980Z,100396.19
2022-12-15T10:00:00.577Z,100396.50
2022-12-15T10:02:49.823Z,100367.78
2022-12-15T10:05:57.577Z,100394.38
2022-12-15T10:08:23.637Z,100396.66
2022-12-15T10:10:57.010Z,100390.53
2022-12-15T10:13:33.693Z,100360.97
2022-12-15T10:16:07.397Z,100395.16
2022-12-15T10:18:46.456Z,100361.97
2022-12-15T10:21:18.748Z,100400.22
2022-12-15T10:23:46.678Z,100383.16
2022-12-15T10:26:21.770Z,100378.50
2022-12-15T10:29:11.591Z,100367.31
2022-12-15T10:31:51.369Z,100388.09
2022-12-15T10:34:26.893Z,100406.34
2022-12-15T10:36:57.008Z,100397.25
2022-12-15T10:39:25.507Z,100401.81
2022-12-15T10:42:13.916Z,100404.94
2022-12-15T10:44:43.798Z,100412.88
2022-12-15T10:47:23.032Z,100410.06
2022-12-15T10:49:51.266Z,100406.97
2022-12-15T10:52:36.411Z,100368.19
2022-12-15T10:55:33.863Z,100407.16
2022-12-15T10:58:04.105Z,100412.91
2022-12-15T11:00:34.319Z,100405.69
2022-12-15T11:03:21.384Z,100406.97
2022-12-15T11:05:53.834Z,100408.88
2022-12-15T11:08:24.617Z,100404.09
2022-12-15T11:11:12.105Z,100398.94
2022-12-15T11:13:41.148Z,100372.09
2022-12-15T11:16:16.602Z,100403.13
2022-12-15T11:18:49.660Z,100404.72
2022-12-15T11:21:23.382Z,100414.53
2022-12-15T11:23:59.099Z,100372.41
2022-12-15T11:26:37.206Z,100417.34
2022-12-15T11:29:16.843Z,100417.22
2022-12-15T11:31:48.804Z,100436.13
2022-12-15T11:34:21.112Z,100438.84
2022-12-15T11:37:08.876Z,100372.06
2022-12-15T11:39:50.071Z,100427.09
2022-12-15T11:42:25.785Z,100405.50
2022-12-15T11:45:03.915Z,100441.06
2022-12-15T11:47:42.681Z,100392.91
2022-12-15T11:50:24.927Z,100438.56
2022-12-15T11:53:18.538Z,100431.47
2022-12-15T11:55:54.680Z,100436.88
2022-12-15T11:58:50.883Z,100443.06
2022-12-15T12:01:32.346Z,100391.31
2022-12-15T12:04:10.954Z,100433.28
2022-12-15T12:06:49.379Z,100378.78
2022-12-15T12:09:30.242Z,100405.53
2022-12-15T12:12:06.079Z,100439.53
2022-12-15T12:14:45.120Z,100436.22
2022-12-15T12:17:29.107Z,100432.31
2022-12-15T12:20:00.766Z,100435.19
2022-12-15T12:22:33.819Z,100439.44
2022-12-15T12:25:04.982Z,100428.28
2022-12-15T12:27:40.807Z,100435.44
2022-12-15T12:30:14.541Z,100452.13
2022-12-15T12:32:50.618Z,100450.06
2022-12-15T12:35:43.734Z,100458.50
2022-12-15T12:38:14.197Z,100448.56
2022-12-15T12:41:03.895Z,100443.28
2022-12-15T12:43:35.419Z,100410.13
2022-12-15T12:46:10.352Z,100439.53
2022-12-15T12:48:42.940Z,100405.34
2022-12-15T12:51:26.119Z,100446.13
2022-12-15T12:53:56.474Z,100454.06
2022-12-15T12:56:38.689Z,100456.66
2022-12-15T12:59:36.559Z,100427.03
2022-12-15T13:02:38.185Z,100461.63
2022-12-15T13:05:25.561Z,100457.38
2022-12-15T13:07:56.383Z,100463.22
2022-12-15T13:10:26.787Z,100458.81
2022-12-15T13:12:56.085Z,100449.66
2022-12-15T13:15:38.280Z,100460.59
2022-12-15T13:18:13.454Z,100448.53
2022-12-15T13:20:42.216Z,100392.69
2022-12-15T13:23:41.332Z,100472.06
2022-12-15T13:26:19.195Z,100453.00
2022-12-15T13:28:51.690Z,100464.22
2022-12-15T13:31:29.811Z,100423.44
2022-12-15T13:34:04.459Z,100413.91
2022-12-15T13:36:54.669Z,100485.22
2022-12-15T13:39:37.231Z,100433.53
2022-12-15T13:42:35.077Z,100486.41
2022-12-15T13:45:34.468Z,100490.41
2022-12-15T13:48:02.836Z,100487.91
2022-12-15T13:50:42.574Z,100437.00
2022-12-15T13:53:19.910Z,100451.59
2022-12-15T13:56:05.274Z,100479.44
2022-12-15T13:58:42.640Z,100493.63
2022-12-15T14:01:23.139Z,100497.50
2022-12-15T14:04:00.043Z,100503.56
2022-12-15T14:06:36.098Z,100500.13
2022-12-15T14:09:05.297Z,100455.97
2022-12-15T14:14:27.835Z,100499.72
2022-12-15T14:17:02.096Z,100499.34
2022-12-15T14:19:40.001Z,100503.84
2022-12-15T14:25:19.817Z,100497.47
2022-12-15T14:27:50.821Z,100473.31
2022-12-15T14:30:29.613Z,100510.81
2022-12-15T14:33:01.337Z,100500.31
2022-12-15T14:35:37.189Z,100491.91
2022-12-15T14:38:09.928Z,100510.38
2022-12-15T14:40:40.568Z,100503.28
2022-12-15T14:43:16.951Z,100504.00
2022-12-15T14:45:46.538Z,100439.03
2022-12-15T14:48:40.657Z,100510.56
2022-12-15T14:51:12.929Z,100510.28
2022-12-15T14:53:43.092Z,100509.03
2022-12-15T14:56:14.738Z,100523.09
2022-12-15T14:58:43.280Z,100515.66
2022-12-15T15:01:26.186Z,100519.94
2022-12-15T15:03:05.833Z,100501.28
2022-12-15T15:03:05.904Z,100488.50
2022-12-15T15:04:02.242Z,100509.00
2022-12-15T15:06:34.441Z,100465.66
2022-12-15T15:09:24.030Z,100521.50
2022-12-15T15:11:55.692Z,100532.91
2022-12-15T15:14:27.729Z,100534.13
2022-12-15T15:17:05.190Z,100481.09
2022-12-15T15:19:39.310Z,100446.88
2022-12-15T15:22:24.635Z,100489.78
2022-12-15T15:24:53.055Z,100503.50
2022-12-15T15:27:27.125Z,100531.50
2022-12-15T15:30:13.509Z,100529.16
2022-12-15T15:32:56.404Z,100480.00
2022-12-15T15:35:26.392Z,100544.13
2022-12-15T15:37:55.754Z,100541.38
2022-12-15T15:40:24.135Z,100542.59
2022-12-15T15:42:55.607Z,100548.03
2022-12-15T15:45:23.820Z,100552.16
2022-12-15T15:47:56.302Z,100511.34
2022-12-15T15:50:29.993Z,100526.84
2022-12-15T15:52:58.632Z,100499.03
2022-12-15T15:55:36.205Z,100564.44
2022-12-15T15:58:12.001Z,100554.97
2022-12-15T16:00:40.399Z,100559.91
2022-12-15T16:03:10.912Z,100564.22
2022-12-15T16:05:39.452Z,100560.41
2022-12-15T16:08:08.668Z,100573.81
2022-12-15T16:10:36.653Z,100516.84
2022-12-15T16:13:04.583Z,100567.84
2022-12-15T16:15:32.881Z,100526.38
2022-12-15T16:18:00.999Z,100568.16
2022-12-15T16:20:31.179Z,100553.59
2022-12-15T16:23:02.095Z,100568.16
2022-12-15T16:25:42.466Z,100570.53
2022-12-15T16:28:14.531Z,100592.88
2022-12-15T16:30:43.616Z,100586.16
2022-12-15T16:33:12.510Z,100544.69
2022-12-15T16:35:43.400Z,100579.22
2022-12-15T16:38:17.126Z,100566.97
2022-12-15T16:40:44.981Z,100522.25
2022-12-15T16:43:17.233Z,100578.28
2022-12-15T16:45:47.371Z,100570.63
2022-12-15T16:48:16.249Z,100529.81
2022-12-15T16:50:51.973Z,100507.34
2022-12-15T16:53:23.041Z,100576.09
2022-12-15T16:55:54.809Z,100536.34
2022-12-15T16:58:25.124Z,100595.25
2022-12-15T17:00:53.810Z,100592.38
2022-12-15T17:03:25.922Z,100595.00
2022-12-15T17:05:57.441Z,100545.44
2022-12-15T17:08:29.170Z,100547.34
2022-12-15T17:10:57.366Z,100581.34
2022-12-15T17:13:37.659Z,100576.19
2022-12-15T17:16:08.271Z,100531.97
2022-12-15T17:18:36.406Z,100535.75
2022-12-15T17:21:09.544Z,100566.72
2022-12-15T17:23:38.221Z,100509.97
2022-12-15T17:26:25.613Z,100581.72
2022-12-15T17:28:56.794Z,100588.97
2022-12-15T17:31:33.223Z,100529.91
2022-12-15T17:34:09.714Z,100586.09
2022-12-15T17:36:39.019Z,100583.22
2022-12-15T17:39:07.737Z,100558.72
2022-12-15T17:41:58.795Z,100602.44
2022-12-15T17:44:41.281Z,100612.47
2022-12-15T17:47:09.824Z,100612.88
2022-12-15T17:49:39.088Z,100614.69
2022-12-15T17:52:17.839Z,100618.81
2022-12-15T17:54:45.790Z,100589.63
2022-12-15T17:57:13.690Z,100615.16
2022-12-15T17:59:41.712Z,100622.16
2022-12-15T18:02:12.849Z,100626.59
2022-12-15T18:04:40.897Z,100623.00
2022-12-15T18:07:16.419Z,100634.28
2022-12-15T18:09:44.391Z,100596.63
2022-12-15T18:12:19.038Z,100633.97
2022-12-15T18:14:46.884Z,100586.63
2022-12-15T18:17:14.852Z,100583.63
2022-12-15T18:19:42.940Z,100625.28
2022-12-15T18:22:15.410Z,100634.44
2022-12-15T18:24:43.506Z,100553.00
2022-12-15T18:27:21.063Z,100635.16
2022-12-15T18:29:49.288Z,100610.41
2022-12-15T18:32:18.031Z,100608.41
2022-12-15T18:34:46.689Z,100612.69
2022-12-15T18:37:18.619Z,100646.47
2022-12-15T18:39:47.271Z,100639.69
2022-12-15T18:42:16.306Z,100641.25
2022-12-15T18:44:47.564Z,100645.69
2022-12-15T18:47:18.166Z,100634.38
2022-12-15T18:49:46.724Z,100613.19
2022-12-15T18:52:19.259Z,100640.03
2022-12-15T18:54:47.964Z,100580.28
2022-12-15T18:57:30.525Z,100654.09
2022-12-15T18:59:59.820Z,100662.94
2022-12-15T19:02:27.788Z,100667.53
2022-12-15T19:04:55.946Z,100667.81
2022-12-15T19:07:25.476Z,100659.06
2022-12-15T19:09:53.860Z,100670.44
2022-12-15T19:12:22.008Z,100597.38
2022-12-15T19:14:52.030Z,100669.72
2022-12-15T19:17:40.005Z,100670.06
2022-12-15T19:20:37.635Z,100621.22
2022-12-15T19:23:08.228Z,100683.94
2022-12-15T19:25:36.770Z,100664.72
2022-12-15T19:28:05.212Z,100683.06
2022-12-15T19:30:40.201Z,100698.06
2022-12-15T19:33:10.765Z,100707.50
2022-12-15T19:35:39.086Z,100712.56
2022-12-15T19:38:09.274Z,100696.22
2022-12-15T19:40:38.670Z,100708.38
2022-12-15T19:43:06.881Z,100704.19
2022-12-15T19:45:35.179Z,100707.63
2022-12-15T19:48:03.437Z,100667.56
2022-12-15T19:50:36.479Z,100657.38
2022-12-15T19:53:08.317Z,100641.69
2022-12-15T19:55:37.771Z,100628.97
2022-12-15T19:58:27.412Z,100662.25
2022-12-15T20:00:57.568Z,100681.91
2022-12-15T20:03:26.227Z,100714.09
2022-12-15T20:05:56.087Z,100657.91
2022-12-15T20:08:25.172Z,100721.00
2022-12-15T20:10:56.075Z,100661.69
2022-12-15T20:13:26.614Z,100727.97
2022-12-15T20:15:54.968Z,100730.03
2022-12-15T20:18:23.054Z,100737.38
2022-12-15T20:20:51.496Z,100740.31
2022-12-15T20:23:21.995Z,100735.16
2022-12-15T20:25:50.302Z,100720.16
2022-12-15T20:28:22.675Z,100720.97
2022-12-15T20:30:51.573Z,100747.34
2022-12-15T20:33:21.267Z,100752.13
2022-12-15T20:35:51.058Z,100741.19
2022-12-15T20:38:22.088Z,100765.34
2022-12-15T20:40:50.078Z,100731.06
2022-12-15T20:43:21.597Z,100763.00
2022-12-15T20:45:57.767Z,100758.22
2022-12-15T20:48:26.272Z,100772.34
2022-12-15T20:50:54.355Z,100765.94
2022-12-15T20:53:24.065Z,100776.53
2022-12-15T20:55:53.520Z,100778.72
2022-12-15T20:58:24.265Z,100706.97
2022-12-15T21:00:55.780Z,100710.53
2022-12-15T21:03:26.637Z,100634.31
2022-12-15T21:05:57.503Z,100748.53
2022-12-15T21:08:28.323Z,100723.88
2022-12-15T21:11:00.997Z,100783.41
2022-12-15T21:13:35.399Z,100780.06
2022-12-15T21:16:03.801Z,100775.81
2022-12-15T21:21:23.015Z,100774.94
2022-12-15T21:23:51.042Z,100788.28
2022-12-15T21:26:22.183Z,100720.16
2022-12-15T21:28:55.807Z,100793.53
2022-12-15T21:31:24.739Z,100785.31
2022-12-15T21:33:53.050Z,100738.06
2022-12-15T21:36:23.196Z,100786.09
2022-12-15T21:38:53.109Z,100784.38
2022-12-15T21:41:24.571Z,100791.75
2022-12-15T21:43:54.954Z,100797.00
2022-12-15T21:46:28.558Z,100798.25
2022-12-15T21:49:15.365Z,100800.41
2022-12-15T21:51:46.206Z,100798.56
2022-12-15T21:54:19.197Z,100812.41
2022-12-15T21:56:48.863Z,100757.38
2022-12-15T21:59:20.520Z,100802.19
2022-12-15T22:01:49.014Z,100805.88
2022-12-15T22:04:21.293Z,100805.63
2022-12-15T22:06:50.773Z,100760.00
2022-12-15T22:09:19.472Z,100814.03
2022-12-15T22:11:49.256Z,100804.00
2022-12-15T22:14:25.374Z,100759.00
2022-12-15T22:16:53.522Z,100825.03
2022-12-15T22:19:21.611Z,100819.50
2022-12-15T22:21:49.666Z,100772.06
2022-12-15T22:24:17.980Z,100827.19
2022-12-15T22:26:46.482Z,100748.69
2022-12-15T22:29:17.025Z,100817.78
2022-12-15T22:31:46.576Z,100815.19
2022-12-15T22:34:15.664Z,100770.75
2022-12-15T22:36:44.083Z,100720.59
2022-12-15T22:39:12.373Z,100821.69
2022-12-15T22:41:42.646Z,100832.72
2022-12-15T22:44:17.480Z,100827.69
2022-12-15T22:46:46.815Z,100817.50
2022-12-15T22:49:18.397Z,100842.94
2022-12-15T22:51:46.637Z,100791.22
2022-12-15T22:54:25.891Z,100854.91
2022-12-15T22:56:58.386Z,100856.03
2022-12-15T22:59:32.091Z,100803.50
2022-12-15T23:02:02.269Z,100815.13
2022-12-15T23:04:30.938Z,100867.59
2022-12-15T23:07:00.438Z,100859.41
2022-12-15T23:09:28.297Z,100813.59
2022-12-15T23:11:55.731Z,100858.34
2022-12-15T23:14:43.792Z,100815.69
2022-12-15T23:17:12.974Z,100864.34
2022-12-15T23:19:44.531Z,100866.25
2022-12-15T23:22:12.771Z,100873.56
2022-12-15T23:24:40.693Z,100871.31
2022-12-15T23:27:11.259Z,100875.09
2022-12-15T23:29:39.648Z,100870.34
2022-12-15T23:32:07.513Z,100867.31
2022-12-15T23:34:37.427Z,100864.19
2022-12-15T23:37:05.755Z,100877.78
2022-12-15T23:39:33.740Z,100888.38
2022-12-15T23:42:01.549Z,100823.03
2022-12-15T23:44:30.402Z,100843.56
2022-12-15T23:46:58.438Z,100889.00
2022-12-15T23:49:26.530Z,100824.16
2022-12-15T23:51:56.285Z,100901.31
2022-12-15T23:54:24.338Z,100893.41
2022-12-15T23:56:52.380Z,100864.06
2022-12-15T23:59:23.050Z,100903.59
